sensor_id;sensor_type;location;lat;lon;timestamp;pressure;altitude;pressure_sealevel;temperature;humidity
55540;BME280;41384;51.418;7.286;2022-08-21T00:02:21;100034.34;;;18.88;81.64
55540;BME280;41384;51.418;7.286;2022-08-21T00:04:47;100031.91;;;18.86;82.96
55540;BME280;41384;51.418;7.286;2022-08-21T00:07:13;100032.00;;;18.96;81.73
55540;BME280;41384;51.418;7.286;2022-08-21T00:09:39;100032.38;;;19.05;81.08
55540;BME280;41384;51.418;7.286;2022-08-21T00:12:05;100027.00;;;19.05;81.68
55540;BME280;41384;51.418;7.286;2022-08-21T00:14:30;100023.53;;;19.05;81.72
55540;BME280;41384;51.418;7.286;2022-08-21T00:16:56;100013.97;;;19.14;80.96
55540;BME280;41384;51.418;7.286;2022-08-21T00:19:22;100013.66;;;19.10;79.58
55540;BME280;41384;51.418;7.286;2022-08-21T00:21:50;100012.63;;;19.17;79.49
55540;BME280;41384;51.418;7.286;2022-08-21T00:24:16;100017.97;;;19.17;79.82
55540;BME280;41384;51.418;7.286;2022-08-21T00:26:42;100005.16;;;19.19;80.54
55540;BME280;41384;51.418;7.286;2022-08-21T00:29:08;100012.88;;;19.10;80.35
55540;BME280;41384;51.418;7.286;2022-08-21T00:31:33;100005.03;;;18.98;81.75
55540;BME280;41384;51.418;7.286;2022-08-21T00:33:58;100005.50;;;18.90;80.81
55540;BME280;41384;51.418;7.286;2022-08-21T00:36:24;100002.72;;;18.74;81.78
55540;BME280;41384;51.418;7.286;2022-08-21T00:38:49;100000.47;;;18.61;82.02
55540;BME280;41384;51.418;7.286;2022-08-21T00:41:14;99992.06;;;18.79;81.72
55540;BME280;41384;51.418;7.286;2022-08-21T00:43:40;100003.03;;;18.83;81.91
55540;BME280;41384;51.418;7.286;2022-08-21T00:46:06;99995.44;;;18.70;82.15
55540;BME280;41384;51.418;7.286;2022-08-21T00:48:32;99997.00;;;18.65;82.66
55540;BME280;41384;51.418;7.286;2022-08-21T00:51:01;99990.53;;;18.56;83.65
55540;BME280;41384;51.418;7.286;2022-08-21T00:53:29;100000.28;;;18.40;84.07
55540;BME280;41384;51.418;7.286;2022-08-21T00:55:55;100002.25;;;18.50;84.50
55540;BME280;41384;51.418;7.286;2022-08-21T00:58:21;99989.81;;;18.33;84.36
55540;BME280;41384;51.418;7.286;2022-08-21T01:00:49;99998.97;;;18.43;86.35
55540;BME280;41384;51.418;7.286;2022-08-21T01:03:20;100001.94;;;18.46;86.62
55540;BME280;41384;51.418;7.286;2022-08-21T01:05:45;99993.72;;;18.53;85.10
55540;BME280;41384;51.418;7.286;2022-08-21T01:08:13;99999.66;;;18.60;85.61
55540;BME280;41384;51.418;7.286;2022-08-21T01:10:41;100004.25;;;18.65;84.24
55540;BME280;41384;51.418;7.286;2022-08-21T01:13:07;100000.50;;;18.66;85.56
55540;BME280;41384;51.418;7.286;2022-08-21T01:15:37;99999.19;;;18.69;85.37
55540;BME280;41384;51.418;7.286;2022-08-21T01:18:05;99996.50;;;18.69;85.83
55540;BME280;41384;51.418;7.286;2022-08-21T01:20:31;99996.53;;;18.74;85.84
55540;BME280;41384;51.418;7.286;2022-08-21T01:22:56;99999.44;;;18.67;86.09
55540;BME280;41384;51.418;7.286;2022-08-21T01:25:22;99998.38;;;18.68;85.79
55540;BME280;41384;51.418;7.286;2022-08-21T01:27:48;99998.16;;;18.75;85.69
55540;BME280;41384;51.418;7.286;2022-08-21T01:30:17;99993.09;;;18.78;84.74
55540;BME280;41384;51.418;7.286;2022-08-21T01:32:43;99990.97;;;18.80;84.58
55540;BME280;41384;51.418;7.286;2022-08-21T01:35:09;99994.97;;;18.78;85.76
55540;BME280;41384;51.418;7.286;2022-08-21T01:37:34;100002.22;;;18.83;84.56
55540;BME280;41384;51.418;7.286;2022-08-21T01:39:59;100001.91;;;18.79;85.20
55540;BME280;41384;51.418;7.286;2022-08-21T01:42:25;99998.66;;;18.72;84.70
55540;BME280;41384;51.418;7.286;2022-08-21T01:44:51;100000.19;;;18.62;84.65
55540;BME280;41384;51.418;7.286;2022-08-21T01:47:16;99992.19;;;18.62;84.65
55540;BME280;41384;51.418;7.286;2022-08-21T01:49:44;99993.31;;;18.39;86.36
55540;BME280;41384;51.418;7.286;2022-08-21T01:52:10;99983.69;;;18.38;87.41
55540;BME280;41384;51.418;7.286;2022-08-21T01:54:37;99986.66;;;18.42;86.76
55540;BME280;41384;51.418;7.286;2022-08-21T01:57:03;99985.22;;;18.29;86.98
55540;BME280;41384;51.418;7.286;2022-08-21T01:59:29;99986.00;;;18.24;87.68
55540;BME280;41384;51.418;7.286;2022-08-21T02:01:54;99983.34;;;18.02;87.38
55540;BME280;41384;51.418;7.286;2022-08-21T02:04:20;99995.56;;;17.98;88.10
55540;BME280;41384;51.418;7.286;2022-08-21T02:06:46;99986.28;;;18.00;88.88
55540;BME280;41384;51.418;7.286;2022-08-21T02:09:12;99988.25;;;17.88;89.61
55540;BME280;41384;51.418;7.286;2022-08-21T02:11:38;99984.03;;;17.92;89.32
55540;BME280;41384;51.418;7.286;2022-08-21T02:14:06;99992.84;;;17.92;89.48
55540;BME280;41384;51.418;7.286;2022-08-21T02:16:31;99981.34;;;17.92;89.99
55540;BME280;41384;51.418;7.286;2022-08-21T02:18:57;99984.63;;;17.72;90.34
55540;BME280;41384;51.418;7.286;2022-08-21T02:21:22;99984.81;;;17.65;90.79
55540;BME280;41384;51.418;7.286;2022-08-21T02:23:47;99976.06;;;17.70;91.24
55540;BME280;41384;51.418;7.286;2022-08-21T02:26:13;99969.84;;;17.64;90.33
55540;BME280;41384;51.418;7.286;2022-08-21T02:28:40;99982.81;;;17.55;91.10
55540;BME280;41384;51.418;7.286;2022-08-21T02:31:05;99976.13;;;17.53;91.26
55540;BME280;41384;51.418;7.286;2022-08-21T02:33:30;99974.38;;;17.41;91.17
55540;BME280;41384;51.418;7.286;2022-08-21T02:35:56;99973.31;;;17.42;91.21
55540;BME280;41384;51.418;7.286;2022-08-21T02:38:25;99977.53;;;17.38;91.40
55540;BME280;41384;51.418;7.286;2022-08-21T02:40:52;99969.47;;;17.33;91.07
55540;BME280;41384;51.418;7.286;2022-08-21T02:43:20;99971.25;;;17.27;91.69
55540;BME280;41384;51.418;7.286;2022-08-21T02:45:47;99970.63;;;17.20;92.43
55540;BME280;41384;51.418;7.286;2022-08-21T02:48:16;99973.69;;;17.29;91.60
55540;BME280;41384;51.418;7.286;2022-08-21T02:50:45;99973.78;;;17.17;91.96
55540;BME280;41384;51.418;7.286;2022-08-21T02:53:12;99971.97;;;17.23;91.63
55540;BME280;41384;51.418;7.286;2022-08-21T02:55:40;99964.19;;;17.38;90.88
55540;BME280;41384;51.418;7.286;2022-08-21T02:58:07;99968.38;;;17.12;92.50
55540;BME280;41384;51.418;7.286;2022-08-21T03:00:34;99974.25;;;17.31;91.56
55540;BME280;41384;51.418;7.286;2022-08-21T03:03:01;99970.53;;;17.32;91.09
55540;BME280;41384;51.418;7.286;2022-08-21T03:05:28;99966.66;;;17.67;90.18
55540;BME280;41384;51.418;7.286;2022-08-21T03:07:54;99975.78;;;17.71;89.50
55540;BME280;41384;51.418;7.286;2022-08-21T03:10:21;99966.56;;;17.57;91.17
55540;BME280;41384;51.418;7.286;2022-08-21T03:12:47;99965.63;;;17.46;91.74
55540;BME280;41384;51.418;7.286;2022-08-21T03:15:19;99964.38;;;17.31;92.59
55540;BME280;41384;51.418;7.286;2022-08-21T03:17:45;99967.59;;;17.33;92.90
55540;BME280;41384;51.418;7.286;2022-08-21T03:20:19;99961.72;;;17.31;92.41
55540;BME280;41384;51.418;7.286;2022-08-21T03:22:45;99961.84;;;17.42;91.34
55540;BME280;41384;51.418;7.286;2022-08-21T03:25:11;99965.00;;;17.39;91.14
55540;BME280;41384;51.418;7.286;2022-08-21T03:27:37;99952.22;;;17.41;90.82
55540;BME280;41384;51.418;7.286;2022-08-21T03:30:04;99960.78;;;17.43;90.37
55540;BME280;41384;51.418;7.286;2022-08-21T03:32:30;99957.13;;;17.27;90.54
55540;BME280;41384;51.418;7.286;2022-08-21T03:34:56;99962.63;;;17.20;90.84
55540;BME280;41384;51.418;7.286;2022-08-21T03:37:22;99956.19;;;17.16;91.20
55540;BME280;41384;51.418;7.286;2022-08-21T03:39:47;99950.16;;;17.03;91.61
55540;BME280;41384;51.418;7.286;2022-08-21T03:42:12;99953.72;;;16.75;93.43
55540;BME280;41384;51.418;7.286;2022-08-21T03:44:38;99958.47;;;16.90;93.62
55540;BME280;41384;51.418;7.286;2022-08-21T03:47:05;99952.88;;;17.09;92.02
55540;BME280;41384;51.418;7.286;2022-08-21T03:49:31;99949.69;;;17.29;90.35
55540;BME280;41384;51.418;7.286;2022-08-21T03:51:56;99954.00;;;17.13;91.04
55540;BME280;41384;51.418;7.286;2022-08-21T03:54:21;99953.59;;;17.04;92.57
55540;BME280;41384;51.418;7.286;2022-08-21T03:56:47;99956.03;;;16.88;93.18
55540;BME280;41384;51.418;7.286;2022-08-21T03:59:12;99963.47;;;16.86;93.38
55540;BME280;41384;51.418;7.286;2022-08-21T04:01:38;99959.03;;;16.75;93.43
55540;BME280;41384;51.418;7.286;2022-08-21T04:04:04;99959.03;;;16.92;93.21
55540;BME280;41384;51.418;7.286;2022-08-21T04:06:30;99967.09;;;16.80;93.92
55540;BME280;41384;51.418;7.286;2022-08-21T04:08:55;99965.88;;;17.05;92.23
55540;BME280;41384;51.418;7.286;2022-08-21T04:11:20;99968.94;;;17.14;91.30
55540;BME280;41384;51.418;7.286;2022-08-21T04:13:46;99967.13;;;17.19;92.42
55540;BME280;41384;51.418;7.286;2022-08-21T04:16:12;99971.84;;;17.12;91.76
55540;BME280;41384;51.418;7.286;2022-08-21T04:18:38;99967.19;;;16.85;93.15
55540;BME280;41384;51.418;7.286;2022-08-21T04:21:04;99970.00;;;16.78;94.24
55540;BME280;41384;51.418;7.286;2022-08-21T04:23:30;99973.25;;;16.81;94.08
55540;BME280;41384;51.418;7.286;2022-08-21T04:25:56;99975.81;;;16.75;94.58
55540;BME280;41384;51.418;7.286;2022-08-21T04:28:23;99972.94;;;16.77;94.34
55540;BME280;41384;51.418;7.286;2022-08-21T04:30:50;99974.22;;;16.74;94.57
55540;BME280;41384;51.418;7.286;2022-08-21T04:33:17;99969.22;;;16.78;94.34
55540;BME280;41384;51.418;7.286;2022-08-21T04:35:42;99971.47;;;16.69;94.83
55540;BME280;41384;51.418;7.286;2022-08-21T04:38:08;99976.72;;;16.81;94.70
55540;BME280;41384;51.418;7.286;2022-08-21T04:40:34;99977.78;;;16.97;93.33
55540;BME280;41384;51.418;7.286;2022-08-21T04:43:05;99977.22;;;16.78;94.29
55540;BME280;41384;51.418;7.286;2022-08-21T04:45:34;99977.69;;;16.75;94.11
55540;BME280;41384;51.418;7.286;2022-08-21T04:48:01;99976.97;;;16.80;94.78
55540;BME280;41384;51.418;7.286;2022-08-21T04:50:40;99976.38;;;16.95;94.15
55540;BME280;41384;51.418;7.286;2022-08-21T04:53:12;99978.50;;;16.75;94.41
55540;BME280;41384;51.418;7.286;2022-08-21T04:55:41;99975.34;;;16.78;94.91
55540;BME280;41384;51.418;7.286;2022-08-21T04:58:09;99982.94;;;16.70;95.73
55540;BME280;41384;51.418;7.286;2022-08-21T05:00:35;99982.69;;;16.71;96.04
55540;BME280;41384;51.418;7.286;2022-08-21T05:03:00;99979.31;;;16.76;95.94
55540;BME280;41384;51.418;7.286;2022-08-21T05:05:28;99980.94;;;16.77;96.55
55540;BME280;41384;51.418;7.286;2022-08-21T05:07:55;99982.94;;;16.87;96.60
55540;BME280;41384;51.418;7.286;2022-08-21T05:10:22;99981.41;;;16.91;96.38
55540;BME280;41384;51.418;7.286;2022-08-21T05:12:47;99981.22;;;17.15;95.79
55540;BME280;41384;51.418;7.286;2022-08-21T05:15:13;99980.56;;;17.25;94.89
55540;BME280;41384;51.418;7.286;2022-08-21T05:17:39;99985.75;;;17.14;95.45
55540;BME280;41384;51.418;7.286;2022-08-21T05:20:05;99981.94;;;17.27;94.88
55540;BME280;41384;51.418;7.286;2022-08-21T05:22:30;99989.34;;;17.42;92.62
55540;BME280;41384;51.418;7.286;2022-08-21T05:24:57;99990.13;;;17.65;90.40
55540;BME280;41384;51.418;7.286;2022-08-21T05:27:22;99990.25;;;17.75;89.43
55540;BME280;41384;51.418;7.286;2022-08-21T05:29:47;99978.34;;;17.83;88.16
55540;BME280;41384;51.418;7.286;2022-08-21T05:32:14;99975.34;;;18.02;87.69
55540;BME280;41384;51.418;7.286;2022-08-21T05:34:39;99984.16;;;18.02;87.43
55540;BME280;41384;51.418;7.286;2022-08-21T05:37:05;99985.63;;;18.15;87.49
55540;BME280;41384;51.418;7.286;2022-08-21T05:39:31;99989.16;;;18.21;86.69
55540;BME280;41384;51.418;7.286;2022-08-21T05:41:56;99983.81;;;18.21;86.46
55540;BME280;41384;51.418;7.286;2022-08-21T05:44:21;99992.94;;;18.25;85.09
55540;BME280;41384;51.418;7.286;2022-08-21T05:46:47;99989.03;;;18.38;82.82
55540;BME280;41384;51.418;7.286;2022-08-21T05:49:12;99998.28;;;18.25;83.39
55540;BME280;41384;51.418;7.286;2022-08-21T05:51:40;99991.41;;;18.34;83.34
55540;BME280;41384;51.418;7.286;2022-08-21T05:54:06;100005.53;;;18.30;84.62
55540;BME280;41384;51.418;7.286;2022-08-21T05:56:31;99997.38;;;18.42;84.63
55540;BME280;41384;51.418;7.286;2022-08-21T05:58:57;99995.53;;;18.15;85.13
55540;BME280;41384;51.418;7.286;2022-08-21T06:01:23;100004.59;;;17.91;86.74
55540;BME280;41384;51.418;7.286;2022-08-21T06:03:48;100003.25;;;17.94;85.94
55540;BME280;41384;51.418;7.286;2022-08-21T06:06:13;99998.09;;;17.82;87.11
55540;BME280;41384;51.418;7.286;2022-08-21T06:08:39;99993.97;;;17.97;86.18
55540;BME280;41384;51.418;7.286;2022-08-21T06:11:05;99997.81;;;17.84;86.75
55540;BME280;41384;51.418;7.286;2022-08-21T06:13:31;100000.66;;;17.99;85.54
55540;BME280;41384;51.418;7.286;2022-08-21T06:16:12;100002.06;;;18.02;85.64
55540;BME280;41384;51.418;7.286;2022-08-21T06:18:39;99998.97;;;17.93;87.23
55540;BME280;41384;51.418;7.286;2022-08-21T06:21:05;99994.34;;;18.05;86.42
55540;BME280;41384;51.418;7.286;2022-08-21T06:23:32;99993.22;;;18.01;87.22
55540;BME280;41384;51.418;7.286;2022-08-21T06:25:57;99997.19;;;17.99;87.87
55540;BME280;41384;51.418;7.286;2022-08-21T06:28:22;99988.47;;;18.08;87.58
55540;BME280;41384;51.418;7.286;2022-08-21T06:30:48;99991.38;;;18.29;85.95
55540;BME280;41384;51.418;7.286;2022-08-21T06:33:13;99990.13;;;18.42;84.60
55540;BME280;41384;51.418;7.286;2022-08-21T06:35:39;99998.72;;;18.44;84.54
55540;BME280;41384;51.418;7.286;2022-08-21T06:38:04;99989.81;;;18.33;84.87
55540;BME280;41384;51.418;7.286;2022-08-21T06:40:30;99994.22;;;18.50;84.99
55540;BME280;41384;51.418;7.286;2022-08-21T06:42:56;99989.47;;;18.57;84.31
55540;BME280;41384;51.418;7.286;2022-08-21T06:45:23;99984.22;;;18.73;83.77
55540;BME280;41384;51.418;7.286;2022-08-21T06:47:49;99988.31;;;18.80;84.47
55540;BME280;41384;51.418;7.286;2022-08-21T06:50:14;99986.47;;;18.86;83.05
55540;BME280;41384;51.418;7.286;2022-08-21T06:52:39;99993.28;;;18.66;83.54
55540;BME280;41384;51.418;7.286;2022-08-21T06:55:07;99995.47;;;18.75;82.88
55540;BME280;41384;51.418;7.286;2022-08-21T06:57:33;99998.41;;;18.73;82.70
55540;BME280;41384;51.418;7.286;2022-08-21T06:59:59;99996.50;;;18.69;82.83
55540;BME280;41384;51.418;7.286;2022-08-21T07:02:24;99992.34;;;18.88;82.44
55540;BME280;41384;51.418;7.286;2022-08-21T07:04:49;99991.56;;;18.88;81.85
55540;BME280;41384;51.418;7.286;2022-08-21T07:07:15;99987.78;;;18.84;81.74
55540;BME280;41384;51.418;7.286;2022-08-21T07:09:41;99990.72;;;18.82;82.08
55540;BME280;41384;51.418;7.286;2022-08-21T07:12:06;99989.28;;;19.02;80.72
55540;BME280;41384;51.418;7.286;2022-08-21T07:14:32;99997.56;;;19.00;80.73
55540;BME280;41384;51.418;7.286;2022-08-21T07:16:57;99991.47;;;19.10;80.46
55540;BME280;41384;51.418;7.286;2022-08-21T07:19:22;99989.09;;;19.19;80.48
55540;BME280;41384;51.418;7.286;2022-08-21T07:21:48;99983.31;;;18.94;79.90
55540;BME280;41384;51.418;7.286;2022-08-21T07:24:13;99984.50;;;19.09;79.33
55540;BME280;41384;51.418;7.286;2022-08-21T07:26:39;99980.91;;;19.41;78.31
55540;BME280;41384;51.418;7.286;2022-08-21T07:29:05;99978.19;;;19.31;78.41
55540;BME280;41384;51.418;7.286;2022-08-21T07:31:30;99979.25;;;19.30;77.96
55540;BME280;41384;51.418;7.286;2022-08-21T07:33:56;99990.97;;;19.18;77.30
55540;BME280;41384;51.418;7.286;2022-08-21T07:36:21;99983.78;;;19.29;76.80
55540;BME280;41384;51.418;7.286;2022-08-21T07:38:47;99984.31;;;19.26;77.04
55540;BME280;41384;51.418;7.286;2022-08-21T07:41:15;99982.72;;;19.30;76.71
55540;BME280;41384;51.418;7.286;2022-08-21T07:43:41;99984.31;;;19.26;76.48
55540;BME280;41384;51.418;7.286;2022-08-21T07:46:07;99980.16;;;19.46;76.55
55540;BME280;41384;51.418;7.286;2022-08-21T07:48:32;99985.53;;;19.56;75.36
55540;BME280;41384;51.418;7.286;2022-08-21T07:50:58;99976.16;;;19.53;73.90
55540;BME280;41384;51.418;7.286;2022-08-21T07:53:27;99979.63;;;19.49;73.09
55540;BME280;41384;51.418;7.286;2022-08-21T07:55:52;99985.53;;;19.51;74.08
55540;BME280;41384;51.418;7.286;2022-08-21T07:58:17;99984.22;;;19.64;73.32
55540;BME280;41384;51.418;7.286;2022-08-21T08:00:43;99977.28;;;19.73;73.47
55540;BME280;41384;51.418;7.286;2022-08-21T08:03:08;99983.13;;;19.60;72.02
55540;BME280;41384;51.418;7.286;2022-08-21T08:05:34;99990.41;;;19.69;70.39
55540;BME280;41384;51.418;7.286;2022-08-21T08:08:02;99991.19;;;19.65;69.76
55540;BME280;41384;51.418;7.286;2022-08-21T08:10:27;99995.47;;;19.71;69.30
55540;BME280;41384;51.418;7.286;2022-08-21T08:12:53;99985.56;;;19.61;68.41
55540;BME280;41384;51.418;7.286;2022-08-21T08:15:23;99988.78;;;19.63;67.73
55540;BME280;41384;51.418;7.286;2022-08-21T08:17:49;99986.38;;;19.67;65.66
55540;BME280;41384;51.418;7.286;2022-08-21T08:20:16;99990.69;;;19.78;65.47
55540;BME280;41384;51.418;7.286;2022-08-21T08:22:43;99997.66;;;19.79;65.21
55540;BME280;41384;51.418;7.286;2022-08-21T08:25:11;99996.03;;;19.73;64.71
55540;BME280;41384;51.418;7.286;2022-08-21T08:27:37;99993.34;;;19.78;66.18
55540;BME280;41384;51.418;7.286;2022-08-21T08:30:04;99995.84;;;19.90;65.81
55540;BME280;41384;51.418;7.286;2022-08-21T08:32:31;99995.59;;;19.92;65.75
55540;BME280;41384;51.418;7.286;2022-08-21T08:34:56;99987.81;;;19.95;65.45
55540;BME280;41384;51.418;7.286;2022-08-21T08:37:21;99975.25;;;20.06;65.07
55540;BME280;41384;51.418;7.286;2022-08-21T08:39:47;99981.41;;;20.02;65.07
55540;BME280;41384;51.418;7.286;2022-08-21T08:42:32;99983.56;;;20.10;64.37
55540;BME280;41384;51.418;7.286;2022-08-21T08:45:06;99983.56;;;20.15;64.49
55540;BME280;41384;51.418;7.286;2022-08-21T08:47:36;99973.91;;;20.30;64.36
55540;BME280;41384;51.418;7.286;2022-08-21T08:50:28;99979.03;;;20.41;63.78
55540;BME280;41384;51.418;7.286;2022-08-21T08:53:02;99975.81;;;20.50;63.00
55540;BME280;41384;51.418;7.286;2022-08-21T08:55:38;99973.66;;;20.57;62.95
55540;BME280;41384;51.418;7.286;2022-08-21T08:58:04;99980.38;;;20.70;63.04
55540;BME280;41384;51.418;7.286;2022-08-21T09:00:31;99982.00;;;20.81;62.08
55540;BME280;41384;51.418;7.286;2022-08-21T09:02:58;99983.06;;;20.85;61.40
55540;BME280;41384;51.418;7.286;2022-08-21T09:05:27;99974.47;;;20.89;61.29
55540;BME280;41384;51.418;7.286;2022-08-21T09:09:01;99982.22;;;21.01;61.00
55540;BME280;41384;51.418;7.286;2022-08-21T09:11:12;99972.84;;;20.98;61.57
55540;BME280;41384;51.418;7.286;2022-08-21T09:19:52;99955.59;;;21.20;60.78
55540;BME280;41384;51.418;7.286;2022-08-21T09:22:47;99955.28;;;21.32;61.49
55540;BME280;41384;51.418;7.286;2022-08-21T09:25:21;99954.69;;;21.45;60.74
55540;BME280;41384;51.418;7.286;2022-08-21T09:27:48;99944.44;;;21.52;59.91
55540;BME280;41384;51.418;7.286;2022-08-21T09:30:14;99946.03;;;21.58;61.03
55540;BME280;41384;51.418;7.286;2022-08-21T09:32:40;99957.31;;;21.71;58.93
55540;BME280;41384;51.418;7.286;2022-08-21T09:35:13;99953.75;;;21.76;58.62
55540;BME280;41384;51.418;7.286;2022-08-21T09:37:46;99957.03;;;21.67;57.88
55540;BME280;41384;51.418;7.286;2022-08-21T09:40:27;99958.38;;;21.70;57.99
55540;BME280;41384;51.418;7.286;2022-08-21T09:43:00;99950.56;;;21.74;58.00
55540;BME280;41384;51.418;7.286;2022-08-21T09:45:26;99954.88;;;21.69;58.65
55540;BME280;41384;51.418;7.286;2022-08-21T09:47:51;99956.75;;;21.74;57.74
55540;BME280;41384;51.418;7.286;2022-08-21T09:50:21;99960.81;;;21.66;57.80
55540;BME280;41384;51.418;7.286;2022-08-21T09:52:53;99957.28;;;21.76;57.85
55540;BME280;41384;51.418;7.286;2022-08-21T09:58:36;99952.41;;;21.78;57.48
55540;BME280;41384;51.418;7.286;2022-08-21T10:01:04;99953.44;;;21.88;57.56
55540;BME280;41384;51.418;7.286;2022-08-21T10:03:30;99948.59;;;21.90;57.05
55540;BME280;41384;51.418;7.286;2022-08-21T10:06:01;99942.09;;;21.96;57.06
55540;BME280;41384;51.418;7.286;2022-08-21T10:08:30;99948.91;;;22.18;56.88
55540;BME280;41384;51.418;7.286;2022-08-21T10:11:08;99948.41;;;22.15;56.73
55540;BME280;41384;51.418;7.286;2022-08-21T10:18:44;99934.09;;;22.25;55.50
55540;BME280;41384;51.418;7.286;2022-08-21T10:24:06;99943.09;;;22.40;56.20
55540;BME280;41384;51.418;7.286;2022-08-21T10:29:14;99932.06;;;22.41;54.49
55540;BME280;41384;51.418;7.286;2022-08-21T10:32:00;99934.34;;;22.58;53.01
55540;BME280;41384;51.418;7.286;2022-08-21T10:34:30;99929.75;;;22.64;54.46
55540;BME280;41384;51.418;7.286;2022-08-21T10:42:33;99924.59;;;22.92;52.37
55540;BME280;41384;51.418;7.286;2022-08-21T10:47:39;99933.66;;;23.01;52.25
55540;BME280;41384;51.418;7.286;2022-08-21T10:50:28;99920.81;;;22.93;52.38
55540;BME280;41384;51.418;7.286;2022-08-21T10:55:48;99916.00;;;23.14;52.03
55540;BME280;41384;51.418;7.286;2022-08-21T10:58:26;99913.41;;;23.28;50.78
55540;BME280;41384;51.418;7.286;2022-08-21T11:01:13;99904.09;;;23.21;51.16
55540;BME280;41384;51.418;7.286;2022-08-21T11:03:46;99915.97;;;23.39;49.55
55540;BME280;41384;51.418;7.286;2022-08-21T11:06:23;99907.91;;;23.39;49.67
55540;BME280;41384;51.418;7.286;2022-08-21T11:08:55;99910.59;;;23.39;50.66
55540;BME280;41384;51.418;7.286;2022-08-21T11:11:32;99899.03;;;23.57;50.37
55540;BME280;41384;51.418;7.286;2022-08-21T11:14:15;99905.09;;;23.49;50.26
55540;BME280;41384;51.418;7.286;2022-08-21T11:16:53;99907.84;;;23.82;48.37
55540;BME280;41384;51.418;7.286;2022-08-21T11:19:31;99919.13;;;23.65;50.09
55540;BME280;41384;51.418;7.286;2022-08-21T11:22:18;99907.75;;;23.68;48.89
55540;BME280;41384;51.418;7.286;2022-08-21T11:24:55;99908.63;;;23.83;48.26
55540;BME280;41384;51.418;7.286;2022-08-21T11:27:49;99906.25;;;23.81;48.22
55540;BME280;41384;51.418;7.286;2022-08-21T11:30:16;99914.75;;;23.69;45.72
55540;BME280;41384;51.418;7.286;2022-08-21T11:32:57;99913.81;;;23.60;46.99
55540;BME280;41384;51.418;7.286;2022-08-21T11:35:59;99904.63;;;23.80;46.57
55540;BME280;41384;51.418;7.286;2022-08-21T11:38:37;99915.41;;;23.80;48.04
55540;BME280;41384;51.418;7.286;2022-08-21T11:41:22;99907.59;;;23.79;47.40
55540;BME280;41384;51.418;7.286;2022-08-21T11:52:11;99918.84;;;24.05;45.76
55540;BME280;41384;51.418;7.286;2022-08-21T11:57:17;99918.84;;;23.86;46.44
55540;BME280;41384;51.418;7.286;2022-08-21T11:59:55;99919.19;;;23.79;46.50
55540;BME280;41384;51.418;7.286;2022-08-21T12:02:28;99924.38;;;23.75;46.13
55540;BME280;41384;51.418;7.286;2022-08-21T12:04:59;99922.84;;;23.88;46.21
55540;BME280;41384;51.418;7.286;2022-08-21T12:09:57;99924.25;;;23.86;45.26
55540;BME280;41384;51.418;7.286;2022-08-21T12:15:02;99918.84;;;24.05;45.98
55540;BME280;41384;51.418;7.286;2022-08-21T12:17:36;99915.25;;;24.10;46.04
55540;BME280;41384;51.418;7.286;2022-08-21T12:26:19;99905.00;;;24.12;46.27
55540;BME280;41384;51.418;7.286;2022-08-21T12:28:46;99901.47;;;24.44;45.80
55540;BME280;41384;51.418;7.286;2022-08-21T12:31:24;99910.84;;;24.33;46.12
55540;BME280;41384;51.418;7.286;2022-08-21T12:33:59;99905.72;;;24.31;45.29
55540;BME280;41384;51.418;7.286;2022-08-21T12:36:54;99911.00;;;24.23;45.11
55540;BME280;41384;51.418;7.286;2022-08-21T12:39:27;99907.78;;;24.21;44.87
55540;BME280;41384;51.418;7.286;2022-08-21T12:44:54;99902.66;;;24.52;45.22
55540;BME280;41384;51.418;7.286;2022-08-21T12:47:34;99908.66;;;24.49;46.48
55540;BME280;41384;51.418;7.286;2022-08-21T12:50:29;99909.06;;;24.42;45.25
55540;BME280;41384;51.418;7.286;2022-08-21T12:53:23;99907.34;;;24.32;45.67
55540;BME280;41384;51.418;7.286;2022-08-21T12:55:51;99909.84;;;24.43;46.55
55540;BME280;41384;51.418;7.286;2022-08-21T12:58:21;99912.94;;;24.36;45.46
55540;BME280;41384;51.418;7.286;2022-08-21T13:00:53;99908.25;;;24.42;45.62
55540;BME280;41384;51.418;7.286;2022-08-21T13:03:21;99902.81;;;24.28;46.31
55540;BME280;41384;51.418;7.286;2022-08-21T13:05:47;99904.41;;;24.29;46.33
55540;BME280;41384;51.418;7.286;2022-08-21T13:08:13;99898.88;;;24.39;45.91
55540;BME280;41384;51.418;7.286;2022-08-21T13:10:40;99889.88;;;24.44;46.13
55540;BME280;41384;51.418;7.286;2022-08-21T13:13:10;99893.25;;;24.36;46.08
55540;BME280;41384;51.418;7.286;2022-08-21T13:15:39;99893.38;;;24.44;45.22
55540;BME280;41384;51.418;7.286;2022-08-21T13:18:06;99899.47;;;24.36;44.30
55540;BME280;41384;51.418;7.286;2022-08-21T13:20:37;99891.50;;;24.59;44.48
55540;BME280;41384;51.418;7.286;2022-08-21T13:23:07;99899.69;;;24.54;45.82
55540;BME280;41384;51.418;7.286;2022-08-21T13:25:40;99891.50;;;24.59;45.51
55540;BME280;41384;51.418;7.286;2022-08-21T13:28:09;99893.94;;;24.74;45.18
55540;BME280;41384;51.418;7.286;2022-08-21T13:30:46;99895.19;;;24.63;45.32
55540;BME280;41384;51.418;7.286;2022-08-21T13:33:15;99885.28;;;24.58;45.15
55540;BME280;41384;51.418;7.286;2022-08-21T13:36:01;99884.31;;;24.96;43.65
55540;BME280;41384;51.418;7.286;2022-08-21T13:38:31;99885.31;;;25.14;44.23
55540;BME280;41384;51.418;7.286;2022-08-21T13:41:01;99886.41;;;24.71;44.94
55540;BME280;41384;51.418;7.286;2022-08-21T13:43:32;99885.09;;;24.69;44.63
55540;BME280;41384;51.418;7.286;2022-08-21T13:45:59;99890.69;;;24.44;45.25
55540;BME280;41384;51.418;7.286;2022-08-21T13:48:28;99884.88;;;24.37;45.75
55540;BME280;41384;51.418;7.286;2022-08-21T13:50:55;99886.47;;;24.52;45.24
55540;BME280;41384;51.418;7.286;2022-08-21T13:53:28;99884.03;;;24.84;45.06
55540;BME280;41384;51.418;7.286;2022-08-21T13:55:54;99884.13;;;24.92;45.28
55540;BME280;41384;51.418;7.286;2022-08-21T13:58:43;99884.25;;;24.87;45.24
55540;BME280;41384;51.418;7.286;2022-08-21T14:01:21;99894.63;;;24.94;44.98
55540;BME280;41384;51.418;7.286;2022-08-21T14:03:49;99877.84;;;24.83;45.44
55540;BME280;41384;51.418;7.286;2022-08-21T14:06:22;99878.03;;;24.87;44.82